Time;durP1;ratioP1;P1;durP2;ratioP2;P2;SDS_P1;SDS_P2;PMS_P1;PMS_P2;Temp;Humidity;BMP_temperature;BMP_pressure;BME280_temperature;BME280_humidity;BME280_pressure;Samples;Min_cycle;Max_cycle;Signal;HPM_P1;HPM_P2
2023/03/06 00:01:50;;;;;;;;;;;;;;;6.87;51.43;96412.16;5024478;28;19917;-75
2023/03/06 00:04:15;;;;;;;;;;;;;;;6.85;51.64;96414.19;5008455;28;19913;-75
2023/03/06 00:06:41;;;;;;;;;;;;;;;6.86;52.00;96415.78;5022931;28;19917;-74
2023/03/06 00:09:06;;;;;;;;;;;;;;;6.86;51.54;96413.97;5032978;28;19917;-74
2023/03/06 00:11:31;;;;;;;;;;;;;;;6.83;52.06;96411.06;5026345;28;19963;-74
2023/03/06 00:13:57;;;;;;;;;;;;;;;6.85;52.16;96406.44;5009019;28;20305;-75
2023/03/06 00:16:23;;;;;;;;;;;;;;;6.81;52.14;96410.53;5025891;28;19959;-74
2023/03/06 00:18:48;;;;;;;;;;;;;;;6.81;52.23;96410.53;4982609;28;19924;-75
2023/03/06 00:21:14;;;;;;;;;;;;;;;6.76;52.09;96400.88;5024130;28;19928;-74
2023/03/06 00:23:40;;;;;;;;;;;;;;;6.77;52.64;96409.41;5006576;28;19955;-74
2023/03/06 00:26:06;;;;;;;;;;;;;;;6.78;52.03;96400.66;5008893;28;19913;-74
2023/03/06 00:28:31;;;;;;;;;;;;;;;6.76;52.27;96390.53;5009595;28;19920;-74
2023/03/06 00:30:56;;;;;;;;;;;;;;;6.69;52.93;96387.34;5019161;28;19921;-74
2023/03/06 00:33:22;;;;;;;;;;;;;;;6.79;52.25;96397.81;5024264;28;19913;-74
2023/03/06 00:35:47;;;;;;;;;;;;;;;6.84;52.20;96395.31;5028489;28;19913;-75
2023/03/06 00:38:12;;;;;;;;;;;;;;;6.84;52.42;96395.31;5009353;28;19924;-74
2023/03/06 00:40:37;;;;;;;;;;;;;;;6.87;52.00;96394.84;5004794;28;20377;-75
2023/03/06 00:43:03;;;;;;;;;;;;;;;6.91;51.75;96403.69;5026495;28;19913;-74
2023/03/06 00:45:28;;;;;;;;;;;;;;;6.79;52.12;96403.00;5021010;28;20369;-75
2023/03/06 00:47:53;;;;;;;;;;;;;;;6.79;52.50;96397.06;5008132;28;19968;-75
2023/03/06 00:50:18;;;;;;;;;;;;;;;6.65;52.42;96381.88;5011211;28;19927;-74
2023/03/06 00:52:44;;;;;;;;;;;;;;;6.64;52.60;96388.06;5027301;28;19954;-75
2023/03/06 00:55:09;;;;;;;;;;;;;;;6.69;52.21;96384.75;5008416;28;20027;-74
2023/03/06 00:57:35;;;;;;;;;;;;;;;6.62;52.75;96376.38;5003198;28;19956;-74
2023/03/06 01:00:00;;;;;;;;;;;;;;;6.56;52.56;96376.31;5025107;28;19920;-75
2023/03/06 01:02:25;;;;;;;;;;;;;;;6.53;52.58;96361.28;5026629;28;19952;-75
2023/03/06 01:04:51;;;;;;;;;;;;;;;6.57;52.91;96359.75;5027825;28;20110;-74
2023/03/06 01:07:16;;;;;;;;;;;;;;;6.52;53.02;96356.34;4994218;28;19913;-75
2023/03/06 01:09:41;;;;;;;;;;;;;;;6.61;52.47;96356.72;5018905;28;19914;-74
2023/03/06 01:12:06;;;;;;;;;;;;;;;6.52;52.81;96346.75;5020378;28;19913;-75
2023/03/06 01:14:33;;;;;;;;;;;;;;;6.54;52.93;96334.38;5010182;28;20479;-74
2023/03/06 01:16:59;;;;;;;;;;;;;;;6.43;53.16;96327.53;5024534;28;20003;-75
2023/03/06 01:19:24;;;;;;;;;;;;;;;6.56;52.41;96334.94;5009351;28;19921;-74
2023/03/06 01:21:49;;;;;;;;;;;;;;;6.59;52.83;96332.88;5033749;28;19917;-74
2023/03/06 01:24:14;;;;;;;;;;;;;;;6.56;52.77;96334.94;5024133;28;19960;-74
2023/03/06 01:26:39;;;;;;;;;;;;;;;6.57;52.42;96326.13;5009925;28;19916;-74
2023/03/06 01:29:05;;;;;;;;;;;;;;;6.52;52.27;96322.72;5031553;28;20357;-74
2023/03/06 01:31:30;;;;;;;;;;;;;;;6.49;52.83;96321.38;5038256;28;19913;-75
2023/03/06 01:33:55;;;;;;;;;;;;;;;6.52;53.33;96317.53;5005041;28;20321;-74
2023/03/06 01:36:21;;;;;;;;;;;;;;;6.56;52.77;96316.03;5023703;28;19975;-75
2023/03/06 01:38:46;;;;;;;;;;;;;;;6.49;52.90;96313.63;5021669;28;19924;-74
2023/03/06 01:41:14;;;;;;;;;;;;;;;6.52;52.43;96307.19;5023990;28;19913;-74
2023/03/06 01:43:41;;;;;;;;;;;;;;;6.45;53.31;96306.59;5012998;28;20378;-74
2023/03/06 01:46:24;;;;;;;;;;;;;;;6.44;53.04;96308.38;5005479;28;20201;-74
2023/03/06 01:49:02;;;;;;;;;;;;;;;6.48;52.84;96300.94;5018785;28;19987;-74
2023/03/06 01:51:29;;;;;;;;;;;;;;;6.46;52.65;96301.19;5011905;28;19917;-74
2023/03/06 01:53:55;;;;;;;;;;;;;;;6.37;53.39;96293.06;5027190;28;19919;-74
2023/03/06 01:56:20;;;;;;;;;;;;;;;6.46;52.65;96300.38;5009688;28;20460;-74
2023/03/06 01:58:45;;;;;;;;;;;;;;;6.40;53.24;96296.97;5007373;28;19952;-76
2023/03/06 02:01:11;;;;;;;;;;;;;;;6.42;53.40;96292.31;5036322;28;19919;-74
2023/03/06 02:03:37;;;;;;;;;;;;;;;6.49;53.42;96284.41;5062621;22;19952;-77
2023/03/06 02:06:02;;;;;;;;;;;;;;;6.45;53.31;96280.75;5020002;28;19917;-77
2023/03/06 02:08:27;;;;;;;;;;;;;;;6.50;53.29;96276.41;5007981;28;19919;-77
2023/03/06 02:10:57;;;;;;;;;;;;;;;6.53;52.41;96278.50;5025477;28;19913;-77
2023/03/06 02:13:25;;;;;;;;;;;;;;;6.50;53.46;96280.81;5025489;28;19913;-77
2023/03/06 02:15:50;;;;;;;;;;;;;;;6.50;52.84;96275.63;4999039;28;20424;-77
2023/03/06 02:18:16;;;;;;;;;;;;;;;6.43;52.90;96275.03;5017910;28;19924;-77
2023/03/06 02:20:44;;;;;;;;;;;;;;;6.42;52.72;96278.63;4992679;28;20276;-77
2023/03/06 02:23:15;;;;;;;;;;;;;;;6.44;52.74;96271.41;5021537;28;19914;-77
2023/03/06 02:25:47;;;;;;;;;;;;;;;6.46;52.94;96271.94;5009699;28;19951;-77
2023/03/06 02:28:17;;;;;;;;;;;;;;;6.41;52.74;96264.94;4987555;28;19935;-77
2023/03/06 02:30:43;;;;;;;;;;;;;;;6.43;52.75;96257.69;5023262;28;20419;-76
2023/03/06 02:33:18;;;;;;;;;;;;;;;6.41;53.51;96251.19;5024290;28;19913;-77
2023/03/06 02:35:53;;;;;;;;;;;;;;;6.39;53.16;96256.59;5018505;28;19913;-77
2023/03/06 02:38:19;;;;;;;;;;;;;;;6.40;53.02;96249.66;5022039;28;20442;-77
2023/03/06 02:40:45;;;;;;;;;;;;;;;6.44;53.41;96250.72;5028931;28;19913;-77
2023/03/06 02:43:11;;;;;;;;;;;;;;;6.41;53.78;96252.00;5018075;28;19924;-77
2023/03/06 02:45:37;;;;;;;;;;;;;;;6.41;53.34;96251.19;5017575;28;19914;-77
2023/03/06 02:48:03;;;;;;;;;;;;;;;6.38;53.67;96249.88;5023407;28;20383;-77
2023/03/06 02:50:29;;;;;;;;;;;;;;;6.37;53.49;96248.31;5023632;28;19913;-77
2023/03/06 02:52:54;;;;;;;;;;;;;;;6.41;53.66;96246.03;5009097;28;19913;-77
2023/03/06 02:55:19;;;;;;;;;;;;;;;6.36;53.92;96239.00;5023331;28;20730;-77
2023/03/06 02:57:45;;;;;;;;;;;;;;;6.36;53.60;96239.78;5011323;28;20283;-77
2023/03/06 03:00:10;;;;;;;;;;;;;;;6.41;54.21;96235.69;5003596;28;19931;-78
2023/03/06 03:02:36;;;;;;;;;;;;;;;6.38;53.88;96227.38;5017608;28;19920;-79
2023/03/06 03:05:01;;;;;;;;;;;;;;;6.35;53.73;96233.03;5018161;28;20463;-79
2023/03/06 03:07:26;;;;;;;;;;;;;;;6.33;54.03;96235.09;5031018;28;19917;-79
2023/03/06 03:09:52;;;;;;;;;;;;;;;6.34;54.20;96239.25;5030097;28;19924;-79
2023/03/06 03:12:17;;;;;;;;;;;;;;;6.30;53.66;96234.78;4995918;28;19921;-79
2023/03/06 03:14:42;;;;;;;;;;;;;;;6.34;54.09;96230.69;5017799;28;19923;-79
2023/03/06 03:17:07;;;;;;;;;;;;;;;6.40;53.63;96228.97;5010921;28;19914;-78
2023/03/06 03:19:33;;;;;;;;;;;;;;;6.36;54.16;96232.03;5030281;28;20376;-78
2023/03/06 03:21:58;;;;;;;;;;;;;;;6.38;53.60;96232.56;4999220;28;19920;-79
2023/03/06 03:24:23;;;;;;;;;;;;;;;6.34;54.11;96233.28;5013896;28;19913;-79
2023/03/06 03:26:49;;;;;;;;;;;;;;;6.32;54.71;96230.94;5018827;28;20403;-79
2023/03/06 03:29:14;;;;;;;;;;;;;;;6.39;53.63;96228.16;5017125;28;20257;-79
2023/03/06 03:31:39;;;;;;;;;;;;;;;6.37;54.39;96230.22;5009588;28;20318;-77
2023/03/06 03:34:04;;;;;;;;;;;;;;;6.35;54.04;96225.28;5018482;28;19914;-79
2023/03/06 03:36:30;;;;;;;;;;;;;;;6.32;54.27;96224.97;4993302;28;19919;-79
2023/03/06 03:38:56;;;;;;;;;;;;;;;6.37;54.19;96228.44;5004936;28;19939;-79
2023/03/06 03:41:21;;;;;;;;;;;;;;;6.42;53.70;96222.50;4995907;28;19921;-79
2023/03/06 03:43:47;;;;;;;;;;;;;;;6.43;54.32;96228.50;4995600;28;19913;-79
2023/03/06 03:46:12;;;;;;;;;;;;;;;6.41;54.26;96220.16;5027797;28;20560;-79
2023/03/06 03:48:37;;;;;;;;;;;;;;;6.46;53.92;96222.81;5023365;28;19929;-79
2023/03/06 03:51:06;;;;;;;;;;;;;;;6.37;53.85;96214.69;5013691;28;20428;-78
2023/03/06 03:53:31;;;;;;;;;;;;;;;6.41;53.74;96215.00;5024952;28;19924;-79
2023/03/06 03:55:57;;;;;;;;;;;;;;;6.38;54.35;96204.13;5007853;28;19917;-79
2023/03/06 03:58:22;;;;;;;;;;;;;;;6.38;54.43;96205.94;5010017;28;19948;-79
2023/03/06 04:00:47;;;;;;;;;;;;;;;6.42;54.28;96196.66;4993791;28;19960;-79
2023/03/06 04:03:12;;;;;;;;;;;;;;;6.41;54.11;96199.47;5010718;28;20328;-79
2023/03/06 04:05:38;;;;;;;;;;;;;;;6.39;54.32;96191.97;4993874;28;20280;-79
2023/03/06 04:08:04;;;;;;;;;;;;;;;6.42;54.16;96190.72;5008928;28;19959;-78
2023/03/06 04:10:29;;;;;;;;;;;;;;;6.37;54.19;96200.00;5007118;28;19913;-79
2023/03/06 04:12:54;;;;;;;;;;;;;;;6.46;54.15;96199.53;5008346;28;20122;-79
2023/03/06 04:15:20;;;;;;;;;;;;;;;6.49;54.29;96197.25;5007631;28;21245;-79
2023/03/06 04:17:45;;;;;;;;;;;;;;;6.42;53.83;96195.88;5025453;28;19968;-79
2023/03/06 04:20:11;;;;;;;;;;;;;;;6.40;54.07;96193.53;5027114;28;19944;-79
2023/03/06 04:22:36;;;;;;;;;;;;;;;6.36;54.11;96192.47;5008057;28;19913;-79
2023/03/06 04:25:01;;;;;;;;;;;;;;;6.27;54.09;96186.94;5024420;28;20082;-79
2023/03/06 04:27:27;;;;;;;;;;;;;;;6.30;54.22;96186.44;4990714;28;19917;-78
2023/03/06 04:29:55;;;;;;;;;;;;;;;6.29;54.49;96186.69;5019248;28;20368;-79
2023/03/06 04:32:20;;;;;;;;;;;;;;;6.33;54.17;96183.38;5011486;28;19913;-79
2023/03/06 04:34:45;;;;;;;;;;;;;;;6.17;54.85;96169.50;5026300;28;20437;-79
2023/03/06 04:37:17;;;;;;;;;;;;;;;6.24;54.51;96176.28;5015726;28;20442;-79
2023/03/06 04:39:42;;;;;;;;;;;;;;;6.28;54.76;96172.97;5023446;28;20402;-78
2023/03/06 04:42:07;;;;;;;;;;;;;;;6.35;53.92;96167.63;5011089;28;19913;-79
2023/03/06 04:44:33;;;;;;;;;;;;;;;6.37;54.06;96161.22;4989996;28;20403;-79
2023/03/06 04:46:58;;;;;;;;;;;;;;;6.30;54.21;96165.75;5000646;28;19913;-79
2023/03/06 04:49:23;;;;;;;;;;;;;;;6.38;54.04;96167.16;5019044;28;20008;-79
2023/03/06 04:51:48;;;;;;;;;;;;;;;6.34;54.31;96168.63;5021341;28;19913;-78
2023/03/06 04:54:14;;;;;;;;;;;;;;;6.34;54.30;96166.84;4990846;28;20328;-79
2023/03/06 04:56:39;;;;;;;;;;;;;;;6.26;55.09;96171.66;5009812;28;20224;-79
2023/03/06 04:59:04;;;;;;;;;;;;;;;6.26;55.25;96166.50;4999297;28;20465;-79
2023/03/06 05:01:29;;;;;;;;;;;;;;;6.29;54.54;96166.00;4996924;28;19921;-79
2023/03/06 05:03:55;;;;;;;;;;;;;;;6.24;55.39;96173.69;5025414;28;19921;-79
2023/03/06 05:06:20;;;;;;;;;;;;;;;6.28;54.53;96167.03;5015530;28;20619;-79
2023/03/06 05:08:46;;;;;;;;;;;;;;;6.39;55.02;96166.13;5006534;28;19970;-78
2023/03/06 05:11:11;;;;;;;;;;;;;;;6.39;54.46;96166.13;5010191;28;19916;-79
2023/03/06 05:13:36;;;;;;;;;;;;;;;6.37;54.99;96157.81;4997930;28;20407;-78
2023/03/06 05:16:02;;;;;;;;;;;;;;;6.36;54.67;96167.38;5012000;28;19978;-79
2023/03/06 05:18:28;;;;;;;;;;;;;;;6.34;54.93;96159.09;5017278;28;20376;-79
2023/03/06 05:20:58;;;;;;;;;;;;;;;6.38;55.19;96167.16;5003913;28;19920;-79
2023/03/06 05:23:24;;;;;;;;;;;;;;;6.32;55.47;96160.34;5013223;28;19948;-79
2023/03/06 05:25:49;;;;;;;;;;;;;;;6.32;55.43;96166.31;5024676;28;19924;-78
2023/03/06 05:28:14;;;;;;;;;;;;;;;6.30;54.92;96162.41;5025152;28;19923;-78
2023/03/06 05:30:40;;;;;;;;;;;;;;;6.25;55.79;96163.13;5027733;28;19921;-79
2023/03/06 05:33:05;;;;;;;;;;;;;;;6.25;55.15;96154.59;5017854;28;20365;-79
2023/03/06 05:35:30;;;;;;;;;;;;;;;6.27;55.54;96158.50;4999810;28;19999;-79
2023/03/06 05:37:55;;;;;;;;;;;;;;;6.23;55.13;96159.22;5027088;28;20428;-78
2023/03/06 05:40:21;;;;;;;;;;;;;;;6.27;55.30;96152.53;5005301;28;19913;-79
2023/03/06 05:42:46;;;;;;;;;;;;;;;6.27;55.55;96152.53;4981855;28;19921;-78
2023/03/06 05:45:11;;;;;;;;;;;;;;;6.28;55.54;96151.53;4993141;28;20003;-78
2023/03/06 05:47:36;;;;;;;;;;;;;;;6.22;55.95;96148.13;4994543;28;20322;-79
2023/03/06 05:50:03;;;;;;;;;;;;;;;6.25;55.33;96150.19;5005381;28;19917;-79
2023/03/06 05:52:28;;;;;;;;;;;;;;;6.28;55.34;96154.88;5023410;28;19913;-79
2023/03/06 05:54:53;;;;;;;;;;;;;;;6.26;56.23;96151.75;4991369;28;19919;-78
2023/03/06 05:57:19;;;;;;;;;;;;;;;6.22;55.34;96158.44;5016731;28;19936;-79
2023/03/06 05:59:44;;;;;;;;;;;;;;;6.18;56.11;96155.53;4995739;28;19925;-78
2023/03/06 06:02:10;;;;;;;;;;;;;;;6.17;56.02;96151.41;5000761;28;19944;-79
2023/03/06 06:04:35;;;;;;;;;;;;;;;6.19;56.45;96154.53;5027027;28;19936;-79
2023/03/06 06:07:00;;;;;;;;;;;;;;;6.27;56.21;96155.13;5005632;28;20016;-79
2023/03/06 06:09:26;;;;;;;;;;;;;;;6.27;55.59;96158.50;5024597;28;19924;-78
2023/03/06 06:11:52;;;;;;;;;;;;;;;6.21;56.29;96161.28;5026880;28;19917;-78
2023/03/06 06:14:18;;;;;;;;;;;;;;;6.15;56.01;96156.03;5004818;28;20016;-78
2023/03/06 06:16:43;;;;;;;;;;;;;;;6.15;56.56;96155.25;5026023;28;20004;-79
2023/03/06 06:19:08;;;;;;;;;;;;;;;6.23;55.74;96156.63;5021925;28;19971;-79
2023/03/06 06:21:34;;;;;;;;;;;;;;;6.32;55.53;96150.81;5018857;28;19917;-79
2023/03/06 06:23:59;;;;;;;;;;;;;;;6.33;56.05;96149.00;5005123;28;19913;-78
2023/03/06 06:26:24;;;;;;;;;;;;;;;6.29;56.29;96158.25;5021789;28;19936;-79
2023/03/06 06:28:49;;;;;;;;;;;;;;;6.35;55.84;96158.06;4995987;28;19923;-79
2023/03/06 06:31:15;;;;;;;;;;;;;;;6.36;56.23;96158.88;5020389;28;19921;-79
2023/03/06 06:33:40;;;;;;;;;;;;;;;6.35;55.54;96159.88;5018570;28;19956;-79
2023/03/06 06:36:13;;;;;;;;;;;;;;;6.33;55.50;96156.75;5000119;28;19925;-79
2023/03/06 06:38:38;;;;;;;;;;;;;;;6.35;56.15;96160.66;5003911;28;19921;-79
2023/03/06 06:41:04;;;;;;;;;;;;;;;6.41;55.73;96153.75;5025527;28;19920;-79
2023/03/06 06:43:30;;;;;;;;;;;;;;;6.24;56.42;96159.00;5005189;28;19935;-78
2023/03/06 06:45:57;;;;;;;;;;;;;;;6.34;55.99;96161.69;4993272;28;20050;-78
2023/03/06 06:48:22;;;;;;;;;;;;;;;6.39;55.92;96163.53;5010618;28;19913;-79
2023/03/06 06:50:53;;;;;;;;;;;;;;;6.30;56.42;96163.16;5026281;28;19920;-79
2023/03/06 06:53:18;;;;;;;;;;;;;;;6.32;56.84;96161.16;5008179;28;19920;-79
2023/03/06 06:55:43;;;;;;;;;;;;;;;6.24;56.33;96163.34;4994393;28;20388;-79
2023/03/06 06:58:09;;;;;;;;;;;;;;;6.25;56.79;96164.94;5030714;28;19952;-79
2023/03/06 07:00:34;;;;;;;;;;;;;;;6.37;56.31;96168.16;4987411;28;19920;-79
2023/03/06 07:02:59;;;;;;;;;;;;;;;6.33;57.02;96173.03;5005642;28;19917;-80
2023/03/06 07:05:24;;;;;;;;;;;;;;;6.32;56.81;96175.84;5011347;28;20452;-79
2023/03/06 07:07:50;;;;;;;;;;;;;;;6.35;57.06;96170.22;5002460;28;19913;-79
2023/03/06 07:10:15;;;;;;;;;;;;;;;6.34;56.46;96168.63;5020180;28;20241;-79
2023/03/06 07:12:41;;;;;;;;;;;;;;;6.24;57.28;96169.31;5031227;28;19923;-79
2023/03/06 07:15:06;;;;;;;;;;;;;;;6.31;56.50;96163.97;5030242;28;19948;-79
2023/03/06 07:17:32;;;;;;;;;;;;;;;6.34;57.00;96169.44;5003008;28;20007;-79
2023/03/06 07:19:58;;;;;;;;;;;;;;;6.35;57.30;96170.22;5012484;28;19913;-79
2023/03/06 07:22:23;;;;;;;;;;;;;;;6.34;56.72;96169.44;5010802;28;19920;-79
2023/03/06 07:24:48;;;;;;;;;;;;;;;6.43;56.94;96172.38;5002856;28;19912;-79
2023/03/06 07:27:14;;;;;;;;;;;;;;;6.41;57.08;96171.03;5007646;28;19920;-79
2023/03/06 07:29:41;;;;;;;;;;;;;;;6.42;57.24;96170.81;5028821;28;19921;-79
2023/03/06 07:32:06;;;;;;;;;;;;;;;6.49;56.77;96168.03;5002062;28;19919;-79
2023/03/06 07:34:31;;;;;;;;;;;;;;;6.47;56.68;96172.66;5018950;28;19935;-79
2023/03/06 07:36:56;;;;;;;;;;;;;;;6.52;56.98;96164.97;5002971;28;19917;-79
2023/03/06 07:39:22;;;;;;;;;;;;;;;6.41;56.86;96164.09;5022334;28;19917;-79
2023/03/06 07:41:47;;;;;;;;;;;;;;;6.56;57.38;96172.00;5021156;28;19921;-79
2023/03/06 07:44:12;;;;;;;;;;;;;;;6.59;56.89;96169.94;5020509;28;20410;-79
2023/03/06 07:46:37;;;;;;;;;;;;;;;6.69;57.00;96164.88;4982455;28;19940;-79
2023/03/06 07:49:03;;;;;;;;;;;;;;;6.74;56.71;96172.69;5015046;28;19996;-79
2023/03/06 07:51:28;;;;;;;;;;;;;;;6.71;56.22;96168.00;5021616;28;19913;-80
2023/03/06 07:53:53;;;;;;;;;;;;;;;6.80;56.72;96179.47;5001644;28;20318;-80
2023/03/06 07:56:19;;;;;;;;;;;;;;;6.70;55.98;96171.59;5006429;28;19921;-79
2023/03/06 07:58:44;;;;;;;;;;;;;;;6.80;56.54;96176.09;4991636;28;19925;-79
2023/03/06 08:01:11;;;;;;;;;;;;;;;6.53;56.53;96175.06;4991282;28;19951;-79
2023/03/06 08:03:36;;;;;;;;;;;;;;;6.79;55.88;96177.91;5007366;28;19913;-79
2023/03/06 08:06:12;;;;;;;;;;;;;;;6.81;55.94;96180.25;5025167;28;19917;-78
2023/03/06 08:08:38;;;;;;;;;;;;;;;6.86;56.16;96175.91;4984844;28;19917;-79
2023/03/06 08:11:03;;;;;;;;;;;;;;;6.75;56.42;96187.16;5004046;28;19956;-79
2023/03/06 08:13:29;;;;;;;;;;;;;;;6.82;56.35;96189.56;5016326;28;19913;-80
2023/03/06 08:15:55;;;;;;;;;;;;;;;6.67;56.49;96185.03;5007304;28;19920;-79
2023/03/06 08:18:20;;;;;;;;;;;;;;;6.77;56.09;96186.94;5006675;28;20804;-79
2023/03/06 08:20:46;;;;;;;;;;;;;;;6.74;56.37;96188.22;5007267;28;20003;-79
2023/03/06 08:23:11;;;;;;;;;;;;;;;6.84;56.56;96192.72;5003612;28;20052;-80
2023/03/06 08:25:36;;;;;;;;;;;;;;;6.88;55.69;96188.59;5001613;28;19920;-79
2023/03/06 08:28:02;;;;;;;;;;;;;;;7.01;55.84;96193.38;5005131;28;19933;-79
2023/03/06 08:30:27;;;;;;;;;;;;;;;7.00;55.60;96201.41;5008633;28;20287;-79
2023/03/06 08:32:53;;;;;;;;;;;;;;;7.09;55.15;96194.75;5011693;28;19952;-79
2023/03/06 08:35:18;;;;;;;;;;;;;;;7.08;55.36;96203.53;5024346;28;19920;-79
2023/03/06 08:37:43;;;;;;;;;;;;;;;7.02;55.08;96197.53;5022416;28;20459;-79
2023/03/06 08:40:09;;;;;;;;;;;;;;;7.16;55.18;96195.31;5002941;28;19913;-79
2023/03/06 08:42:34;;;;;;;;;;;;;;;7.23;55.92;96201.09;4981178;28;19912;-79
2023/03/06 08:44:59;;;;;;;;;;;;;;;7.29;54.88;96207.09;5018242;28;19944;-80
2023/03/06 08:47:25;;;;;;;;;;;;;;;7.40;54.71;96202.75;5015780;28;19917;-79
2023/03/06 08:49:50;;;;;;;;;;;;;;;7.46;54.70;96206.97;5005849;28;20344;-79
2023/03/06 08:52:15;;;;;;;;;;;;;;;7.49;53.99;96206.47;5022337;28;19913;-79
2023/03/06 08:54:41;;;;;;;;;;;;;;;7.49;54.26;96191.69;5008749;28;19919;-78
2023/03/06 08:57:07;;;;;;;;;;;;;;;7.46;54.39;96196.59;5008989;28;19967;-79
2023/03/06 08:59:38;;;;;;;;;;;;;;;7.45;54.63;96202.78;5007347;28;20276;-79
2023/03/06 09:02:04;;;;;;;;;;;;;;;7.57;54.18;96200.03;4993694;28;19924;-79
2023/03/06 09:04:30;;;;;;;;;;;;;;;7.64;53.88;96205.78;5000711;28;20020;-78
2023/03/06 09:06:55;;;;;;;;;;;;;;;7.68;54.13;96201.66;5005064;28;20020;-79
2023/03/06 09:09:20;;;;;;;;;;;;;;;7.75;53.76;96201.47;5009949;28;20515;-79
2023/03/06 09:11:46;;;;;;;;;;;;;;;7.60;53.98;96197.72;5018265;28;19920;-79
2023/03/06 09:14:11;;;;;;;;;;;;;;;7.73;53.70;96208.69;4993633;28;19917;-79
2023/03/06 09:16:36;;;;;;;;;;;;;;;7.68;54.14;96212.81;5028557;28;20008;-78
2023/03/06 09:19:02;;;;;;;;;;;;;;;7.61;54.19;96209.66;4982177;28;19968;-78
2023/03/06 09:21:27;;;;;;;;;;;;;;;7.58;54.17;96209.38;4987277;28;20368;-78
2023/03/06 09:23:52;;;;;;;;;;;;;;;7.54;54.39;96216.88;5005064;28;19960;-78
2023/03/06 09:26:18;;;;;;;;;;;;;;;7.37;54.68;96216.19;5007652;28;20000;-78
2023/03/06 09:28:43;;;;;;;;;;;;;;;7.45;54.42;96213.16;5027898;28;19917;-79
2023/03/06 09:31:09;;;;;;;;;;;;;;;7.52;54.35;96211.13;5002015;28;19913;-79
2023/03/06 09:33:34;;;;;;;;;;;;;;;7.55;54.24;96210.63;4994691;28;19913;-78
2023/03/06 09:36:00;;;;;;;;;;;;;;;7.49;54.38;96209.06;5020135;28;20343;-78
2023/03/06 09:38:26;;;;;;;;;;;;;;;7.45;54.84;96218.31;5024842;28;19940;-78
2023/03/06 09:40:58;;;;;;;;;;;;;;;7.50;54.89;96210.59;5010738;28;20404;-79
2023/03/06 09:43:26;;;;;;;;;;;;;;;7.42;54.43;96217.03;5025801;28;20372;-78
2023/03/06 09:45:51;;;;;;;;;;;;;;;7.41;54.74;96217.28;5003299;28;20448;-79
2023/03/06 09:48:16;;;;;;;;;;;;;;;7.46;55.07;96214.72;5028671;28;19948;-78
2023/03/06 09:50:42;;;;;;;;;;;;;;;7.49;54.82;96214.25;5014453;28;19912;-79
2023/03/06 09:53:10;;;;;;;;;;;;;;;7.35;54.69;96213.06;5017801;28;19917;-79
2023/03/06 09:55:36;;;;;;;;;;;;;;;7.30;55.38;96221.59;4999739;28;20359;-78
2023/03/06 09:58:03;;;;;;;;;;;;;;;7.33;55.34;96213.31;5004018;28;19967;-78
2023/03/06 10:00:36;;;;;;;;;;;;;;;7.29;55.45;96213.03;4991521;28;20484;-79
2023/03/06 10:03:13;;;;;;;;;;;;;;;7.38;55.84;96217.75;5010795;28;20376;-79
2023/03/06 10:05:40;;;;;;;;;;;;;;;7.35;55.93;96210.47;5010186;28;20216;-79
2023/03/06 10:08:11;;;;;;;;;;;;;;;7.33;56.36;96215.91;5010079;28;19967;-79
2023/03/06 10:10:48;;;;;;;;;;;;;;;7.38;56.25;96210.00;5021941;28;20334;-79
2023/03/06 10:13:18;;;;;;;;;;;;;;;7.59;56.09;96214.31;5013401;28;19909;-79
2023/03/06 10:15:43;;;;;;;;;;;;;;;7.50;55.70;96210.59;5002601;28;19913;-78
2023/03/06 10:18:09;;;;;;;;;;;;;;;7.44;56.57;96214.19;5009317;28;19917;-79
2023/03/06 10:20:53;;;;;;;;;;;;;;;7.51;56.54;96209.59;4975858;28;19913;-79
2023/03/06 10:23:27;;;;;;;;;;;;;;;7.46;56.56;96204.38;5023295;28;20003;-79
2023/03/06 10:25:59;;;;;;;;;;;;;;;7.41;57.06;96206.91;4999976;28;19921;-79
2023/03/06 10:28:35;;;;;;;;;;;;;;;7.46;56.92;96204.38;5030965;28;19948;-79
2023/03/06 10:31:00;;;;;;;;;;;;;;;7.48;56.54;96208.25;4994915;28;19945;-78
2023/03/06 10:33:44;;;;;;;;;;;;;;;7.50;57.12;96213.19;5020071;28;19951;-78
2023/03/06 10:36:11;;;;;;;;;;;;;;;7.60;56.43;96215.09;5009209;28;20296;-78
2023/03/06 10:38:37;;;;;;;;;;;;;;;7.58;56.33;96207.56;5011102;28;19924;-78
2023/03/06 10:41:05;;;;;;;;;;;;;;;7.54;56.89;96216.06;4997765;28;20316;-78
2023/03/06 10:43:31;;;;;;;;;;;;;;;7.50;56.36;96215.78;5011830;28;19961;-78
2023/03/06 10:45:56;;;;;;;;;;;;;;;7.44;56.42;96214.97;5007097;28;19960;-78
2023/03/06 10:48:23;;;;;;;;;;;;;;;7.53;56.85;96210.09;5017734;28;20380;-78
2023/03/06 10:50:48;;;;;;;;;;;;;;;7.38;57.26;96212.59;4983590;28;19916;-78
2023/03/06 10:53:19;;;;;;;;;;;;;;;7.36;57.93;96214.66;5014234;28;19913;-78
2023/03/06 10:55:52;;;;;;;;;;;;;;;7.54;57.60;96216.88;5000295;28;20026;-78
2023/03/06 10:58:18;;;;;;;;;;;;;;;7.40;57.54;96216.50;4997117;28;19999;-78
2023/03/06 11:00:44;;;;;;;;;;;;;;;7.48;57.83;96212.66;4997586;28;20364;-78
2023/03/06 11:03:15;;;;;;;;;;;;;;;7.55;57.31;96205.47;5012083;28;19917;-78
2023/03/06 11:05:51;;;;;;;;;;;;;;;7.51;57.58;96212.16;5012386;28;19924;-79
2023/03/06 11:08:21;;;;;;;;;;;;;;;7.61;57.51;96208.88;5027104;28;19917;-78
2023/03/06 11:10:53;;;;;;;;;;;;;;;7.65;57.87;96215.13;4999703;28;19917;-78
2023/03/06 11:13:20;;;;;;;;;;;;;;;7.71;57.93;96202.97;5013143;28;19935;-79
2023/03/06 11:15:56;;;;;;;;;;;;;;;7.72;57.30;96207.91;4993969;28;19920;-78
2023/03/06 11:18:22;;;;;;;;;;;;;;;7.61;58.21;96207.06;4985469;28;20020;-78
2023/03/06 11:20:52;;;;;;;;;;;;;;;7.67;58.46;96211.22;5011029;28;20416;-79
2023/03/06 11:23:37;;;;;;;;;;;;;;;7.85;58.27;96209.28;4987076;28;19913;-78
2023/03/06 11:26:14;;;;;;;;;;;;;;;7.90;57.06;96198.97;5019122;28;19925;-78
2023/03/06 11:28:44;;;;;;;;;;;;;;;7.97;57.19;96199.50;5024649;28;19979;-78
2023/03/06 11:31:12;;;;;;;;;;;;;;;7.69;57.39;96198.84;5022074;28;19913;-78
2023/03/06 11:33:45;;;;;;;;;;;;;;;7.78;57.44;96196.56;5027976;28;20323;-78
2023/03/06 11:36:13;;;;;;;;;;;;;;;7.88;57.48;96194.03;5020101;28;19924;-78
2023/03/06 11:38:48;;;;;;;;;;;;;;;7.87;56.43;96205.41;5022195;28;19968;-78
2023/03/06 11:41:18;;;;;;;;;;;;;;;7.77;56.43;96197.56;5011107;28;19967;-78
2023/03/06 11:43:52;;;;;;;;;;;;;;;7.77;57.96;96204.56;5009473;28;19966;-78
2023/03/06 11:46:22;;;;;;;;;;;;;;;7.73;57.68;96193.13;4982675;28;19949;-78
2023/03/06 11:48:51;;;;;;;;;;;;;;;7.48;57.50;96187.53;5001242;28;19917;-78
2023/03/06 11:51:18;;;;;;;;;;;;;;;7.57;58.16;96190.44;5009795;28;19914;-78
2023/03/06 11:53:44;;;;;;;;;;;;;;;7.78;56.97;96187.97;5005747;28;20358;-78
2023/03/06 11:56:09;;;;;;;;;;;;;;;7.71;57.20;96195.19;5011643;28;20023;-78
2023/03/06 11:58:35;;;;;;;;;;;;;;;7.58;57.34;96188.66;5024928;28;19967;-79
2023/03/06 12:01:03;;;;;;;;;;;;;;;7.37;57.90;96187.72;5029478;28;20351;-78
2023/03/06 12:03:31;;;;;;;;;;;;;;;7.35;57.79;96179.41;5013837;28;19913;-78
2023/03/06 12:06:02;;;;;;;;;;;;;;;7.40;57.59;96182.03;5011093;28;19917;-78
2023/03/06 12:08:30;;;;;;;;;;;;;;;7.38;58.27;96178.91;5020573;28;20285;-79
2023/03/06 12:10:58;;;;;;;;;;;;;;;7.36;58.02;96173.22;4989146;28;19913;-78
2023/03/06 12:13:39;;;;;;;;;;;;;;;7.31;58.18;96177.31;5025919;28;19961;-78
2023/03/06 12:16:23;;;;;;;;;;;;;;;7.33;58.51;96177.06;5019659;28;20137;-78
2023/03/06 12:19:24;;;;;;;;;;;;;;;7.34;58.61;96183.03;5016752;28;19917;-78
2023/03/06 12:22:08;;;;;;;;;;;;;;;7.39;58.56;96176.09;4973521;28;19924;-78
2023/03/06 12:24:42;;;;;;;;;;;;;;;7.45;58.99;96177.69;5019996;28;19914;-78
2023/03/06 12:27:16;;;;;;;;;;;;;;;7.45;58.32;96171.72;5009331;28;19917;-78
2023/03/06 12:29:42;;;;;;;;;;;;;;;7.42;58.20;96162.66;5023265;28;20491;-78
2023/03/06 12:32:25;;;;;;;;;;;;;;;7.46;57.75;96165.50;5035002;28;20005;-78
2023/03/06 12:34:50;;;;;;;;;;;;;;;7.42;58.26;96160.06;5013672;28;19913;-79
2023/03/06 12:37:19;;;;;;;;;;;;;;;7.37;58.18;96161.81;5009478;28;20327;-79
2023/03/06 12:40:05;;;;;;;;;;;;;;;7.43;58.41;96160.81;5027468;28;19917;-78
2023/03/06 12:42:38;;;;;;;;;;;;;;;7.47;57.48;96157.50;5017124;28;19917;-78
2023/03/06 12:45:23;;;;;;;;;;;;;;;7.48;58.40;96153.09;4992688;28;20280;-78
2023/03/06 12:47:48;;;;;;;;;;;;;;;7.43;58.15;96158.25;5005530;28;19917;-78
2023/03/06 12:50:18;;;;;;;;;;;;;;;7.39;58.21;96157.97;4997854;28;20430;-78
2023/03/06 12:52:43;;;;;;;;;;;;;;;7.55;57.66;96156.25;5009209;28;20470;-78
2023/03/06 12:55:12;;;;;;;;;;;;;;;7.56;57.93;96154.44;5019910;28;19916;-79
2023/03/06 12:57:37;;;;;;;;;;;;;;;7.64;57.93;96151.38;5009213;28;20013;-78